Terminal Aerodrome Forecast
Issued by NWS Tuscon, AZ

Home | Current Version | Previous Version | Text Only | Print | Product List | Glossary On
Versions: 1 2 3 4 5 6 7 8 9 10 11 12 13
000
FTUS45 KTWC 221100
TAFDUG
TAF
KDUG 221128Z 2212/2312 02007KT P6SM FEW250
     FM221800 08006KT P6SM FEW080
     FM230300 01007KT P6SM SKC
     FM231000 VRB03KT P6SM SKC=

USA.gov is the U.S. government's official web portal to all federal, state and local government web resources and services.